KRMG/RMG METAR and TAF weather

Enter ICAO airport designator
Station Type Date Time Source
KRMG METAR 2020/09/25 05:27 UTC NOAA

KRMG 250527Z AUTO 04005KT 8SM OVC004 18/17 A2989 RMK AO2 RAE0454B06E21 P0001 T01830172


Station Type Date Time Source
KRMG Decoded METAR 2020/09/25 05:27 UTC NOAA

ROME R. B. RUSSELL AIRPORT, GA, United States (KRMG) 34-21N 085-10W 193M
Sep 25, 2020 - 01:27 AM EDT / 2020.09.25 0527 UTC
Wind: from the NE (040 degrees) at 6 MPH (5 KT):0
Visibility: 8 mile(s):0
Sky conditions: overcast
Precipitation last hour: 0.01 inches
Temperature: 64.9 F (18.3 C)
Dew Point: 63.0 F (17.2 C)
Relative Humidity: 93%
Pressure (altimeter): 29.89 in. Hg (1012 hPa)
ob: KRMG 250527Z AUTO 04005KT 8SM OVC004 18/17 A2989 RMK AO2 RAE0454B06E21 P0001 T01830172
cycle: 5

Station Type Date Time Source
KRMG TAF UTC NOAA

Error!

Example: see airport list